sensor_id;sensor_type;location;lat;lon;timestamp;pressure;altitude;pressure_sealevel;temperature;humidity
74868;BME280;63419;42.262;12.210;2023-05-10T17:40:56;94282.75;;;20.38;100.00
74868;BME280;63419;42.262;12.210;2023-05-10T17:43:23;94381.75;;;19.84;100.00
74868;BME280;63419;42.262;12.210;2023-05-10T17:45:52;94421.31;;;19.87;100.00
74868;BME280;63419;42.262;12.210;2023-05-10T17:48:19;94506.78;;;19.04;100.00
74868;BME280;63419;42.262;12.210;2023-05-10T17:50:49;94536.22;;;18.81;100.00
74868;BME280;63419;42.262;12.210;2023-05-10T17:53:17;94565.91;;;18.13;100.00
74868;BME280;63419;42.262;12.210;2023-05-10T17:55:45;94612.56;;;16.82;100.00
74868;BME280;63419;42.262;12.210;2023-05-10T17:58:12;94584.75;;;17.14;100.00
74868;BME280;63419;42.262;12.210;2023-05-10T18:00:40;94545.78;;;17.76;100.00
74868;BME280;63419;42.262;12.210;2023-05-10T18:03:07;94623.44;;;16.65;100.00
74868;BME280;63419;42.262;12.210;2023-05-10T18:05:38;94616.69;;;16.51;100.00
74868;BME280;63419;42.262;12.210;2023-05-10T18:08:05;94602.50;;;16.40;100.00
74868;BME280;63419;42.262;12.210;2023-05-10T18:10:33;94590.50;;;16.32;100.00
74868;BME280;63419;42.262;12.210;2023-05-10T18:13:00;94578.66;;;16.43;100.00
74868;BME280;63419;42.262;12.210;2023-05-10T18:15:33;94609.41;;;15.74;100.00
74868;BME280;63419;42.262;12.210;2023-05-10T18:18:02;94612.97;;;15.67;100.00
74868;BME280;63419;42.262;12.210;2023-05-10T18:20:30;94545.25;;;16.40;100.00
74868;BME280;63419;42.262;12.210;2023-05-10T18:22:58;94582.16;;;16.17;100.00
74868;BME280;63419;42.262;12.210;2023-05-10T18:25:25;94584.16;;;16.08;100.00
74868;BME280;63419;42.262;12.210;2023-05-10T18:27:52;94584.38;;;15.93;100.00
74868;BME280;63419;42.262;12.210;2023-05-10T18:30:19;94594.78;;;16.07;100.00
74868;BME280;63419;42.262;12.210;2023-05-10T18:32:46;94621.00;;;15.78;100.00
74868;BME280;63419;42.262;12.210;2023-05-10T18:35:14;94588.13;;;16.24;100.00
74868;BME280;63419;42.262;12.210;2023-05-10T18:37:41;94620.19;;;15.91;100.00
74868;BME280;63419;42.262;12.210;2023-05-10T18:40:09;94623.00;;;15.83;100.00
74868;BME280;63419;42.262;12.210;2023-05-10T18:42:38;94631.59;;;15.64;100.00
74868;BME280;63419;42.262;12.210;2023-05-10T18:45:06;94572.28;;;16.39;100.00
74868;BME280;63419;42.262;12.210;2023-05-10T18:47:33;94576.31;;;16.87;100.00
74868;BME280;63419;42.262;12.210;2023-05-10T18:50:03;94620.69;;;16.47;100.00
74868;BME280;63419;42.262;12.210;2023-05-10T18:52:31;94605.31;;;16.97;100.00
74868;BME280;63419;42.262;12.210;2023-05-10T18:54:58;94641.41;;;16.87;100.00
74868;BME280;63419;42.262;12.210;2023-05-10T18:57:25;94668.09;;;16.69;100.00
74868;BME280;63419;42.262;12.210;2023-05-10T18:59:52;94709.19;;;15.80;100.00
74868;BME280;63419;42.262;12.210;2023-05-10T19:02:20;94672.81;;;16.13;100.00
74868;BME280;63419;42.262;12.210;2023-05-10T19:04:47;94629.31;;;17.06;100.00
74868;BME280;63419;42.262;12.210;2023-05-10T19:07:14;94651.88;;;17.19;100.00
74868;BME280;63419;42.262;12.210;2023-05-10T19:09:41;94727.78;;;16.57;100.00
74868;BME280;63419;42.262;12.210;2023-05-10T19:12:08;94751.22;;;16.04;100.00
74868;BME280;63419;42.262;12.210;2023-05-10T19:14:35;94761.13;;;15.67;100.00
74868;BME280;63419;42.262;12.210;2023-05-10T19:17:02;94721.81;;;16.10;100.00
74868;BME280;63419;42.262;12.210;2023-05-10T19:19:29;94723.63;;;16.29;100.00
74868;BME280;63419;42.262;12.210;2023-05-10T19:21:57;94713.53;;;16.80;100.00
74868;BME280;63419;42.262;12.210;2023-05-10T19:24:24;94745.97;;;16.84;100.00
74868;BME280;63419;42.262;12.210;2023-05-10T19:26:52;94815.19;;;15.78;100.00
74868;BME280;63419;42.262;12.210;2023-05-10T19:29:21;94754.78;;;16.63;100.00
74868;BME280;63419;42.262;12.210;2023-05-10T19:31:49;94771.25;;;16.63;100.00
74868;BME280;63419;42.262;12.210;2023-05-10T19:34:18;94775.66;;;16.56;100.00
74868;BME280;63419;42.262;12.210;2023-05-10T19:36:46;94795.25;;;16.59;100.00
74868;BME280;63419;42.262;12.210;2023-05-10T19:39:13;94799.03;;;16.96;100.00
74868;BME280;63419;42.262;12.210;2023-05-10T19:41:40;94800.59;;;17.17;100.00
74868;BME280;63419;42.262;12.210;2023-05-10T19:44:07;94815.41;;;17.23;100.00
74868;BME280;63419;42.262;12.210;2023-05-10T19:46:34;94846.31;;;16.80;100.00
74868;BME280;63419;42.262;12.210;2023-05-10T19:49:01;94830.88;;;17.11;100.00
74868;BME280;63419;42.262;12.210;2023-05-10T19:51:28;94850.16;;;16.84;100.00
74868;BME280;63419;42.262;12.210;2023-05-10T19:53:55;94867.31;;;16.45;100.00
74868;BME280;63419;42.262;12.210;2023-05-10T19:56:23;94864.09;;;16.16;100.00
74868;BME280;63419;42.262;12.210;2023-05-10T19:58:50;94841.53;;;16.56;100.00
74868;BME280;63419;42.262;12.210;2023-05-10T20:01:17;94844.53;;;16.67;100.00
74868;BME280;63419;42.262;12.210;2023-05-10T20:03:44;94827.63;;;17.23;100.00
74868;BME280;63419;42.262;12.210;2023-05-10T20:06:11;94856.94;;;17.11;100.00
74868;BME280;63419;42.262;12.210;2023-05-10T20:08:39;94938.56;;;15.12;100.00
74868;BME280;63419;42.262;12.210;2023-05-10T20:11:06;94854.31;;;16.31;100.00
74868;BME280;63419;42.262;12.210;2023-05-10T20:13:33;94849.72;;;16.53;100.00
74868;BME280;63419;42.262;12.210;2023-05-10T20:16:00;94864.94;;;16.77;100.00
74868;BME280;63419;42.262;12.210;2023-05-10T20:18:28;94863.53;;;17.07;100.00
74868;BME280;63419;42.262;12.210;2023-05-10T20:20:57;94872.97;;;17.15;100.00
74868;BME280;63419;42.262;12.210;2023-05-10T20:23:25;94891.56;;;16.79;100.00
74868;BME280;63419;42.262;12.210;2023-05-10T20:25:54;94896.78;;;16.65;100.00
74868;BME280;63419;42.262;12.210;2023-05-10T20:28:23;94905.38;;;16.46;100.00
74868;BME280;63419;42.262;12.210;2023-05-10T20:30:53;94891.41;;;16.93;100.00
74868;BME280;63419;42.262;12.210;2023-05-10T20:33:21;94886.56;;;17.24;100.00
74868;BME280;63419;42.262;12.210;2023-05-10T20:35:49;94929.41;;;16.61;100.00
74868;BME280;63419;42.262;12.210;2023-05-10T20:38:17;94938.22;;;16.40;100.00
74868;BME280;63419;42.262;12.210;2023-05-10T20:40:44;94921.38;;;16.29;100.00
74868;BME280;63419;42.262;12.210;2023-05-10T20:43:12;94903.41;;;16.81;100.00
74868;BME280;63419;42.262;12.210;2023-05-10T20:45:39;94956.66;;;15.97;100.00
74868;BME280;63419;42.262;12.210;2023-05-10T20:48:06;94918.56;;;16.24;100.00
74868;BME280;63419;42.262;12.210;2023-05-10T20:50:34;94889.41;;;16.96;100.00
74868;BME280;63419;42.262;12.210;2023-05-10T20:53:01;94911.41;;;16.80;100.00
74868;BME280;63419;42.262;12.210;2023-05-10T20:55:28;94900.78;;;17.28;100.00
74868;BME280;63419;42.262;12.210;2023-05-10T20:57:55;94930.88;;;17.04;100.00
74868;BME280;63419;42.262;12.210;2023-05-10T21:00:22;94923.81;;;17.44;100.00
74868;BME280;63419;42.262;12.210;2023-05-10T21:02:49;94943.28;;;17.22;100.00
74868;BME280;63419;42.262;12.210;2023-05-10T21:05:17;94925.56;;;17.64;100.00
74868;BME280;63419;42.262;12.210;2023-05-10T21:07:44;94931.94;;;17.81;100.00
74868;BME280;63419;42.262;12.210;2023-05-10T21:10:11;94934.97;;;17.78;100.00
74868;BME280;63419;42.262;12.210;2023-05-10T21:12:38;94929.56;;;17.73;100.00
74868;BME280;63419;42.262;12.210;2023-05-10T21:15:07;94934.81;;;17.66;100.00
74868;BME280;63419;42.262;12.210;2023-05-10T21:17:34;94976.34;;;17.15;100.00
74868;BME280;63419;42.262;12.210;2023-05-10T21:20:02;95052.53;;;14.13;100.00
74868;BME280;63419;42.262;12.210;2023-05-10T21:22:29;94937.63;;;14.70;100.00
74868;BME280;63419;42.262;12.210;2023-05-10T21:24:56;94835.19;;;15.84;100.00
74868;BME280;63419;42.262;12.210;2023-05-10T21:27:23;94822.84;;;16.13;100.00
74868;BME280;63419;42.262;12.210;2023-05-10T21:29:50;94873.13;;;15.65;100.00
74868;BME280;63419;42.262;12.210;2023-05-10T21:32:17;94864.00;;;15.76;100.00
74868;BME280;63419;42.262;12.210;2023-05-10T21:34:45;94863.13;;;15.69;100.00
74868;BME280;63419;42.262;12.210;2023-05-10T21:37:12;94872.03;;;15.46;100.00
74868;BME280;63419;42.262;12.210;2023-05-10T21:39:39;94826.50;;;16.32;100.00
74868;BME280;63419;42.262;12.210;2023-05-10T21:42:06;94886.63;;;15.47;100.00
74868;BME280;63419;42.262;12.210;2023-05-10T21:44:33;94848.06;;;16.06;100.00
74868;BME280;63419;42.262;12.210;2023-05-10T21:47:00;94842.28;;;16.30;100.00
74868;BME280;63419;42.262;12.210;2023-05-10T21:49:27;94857.31;;;16.48;100.00
74868;BME280;63419;42.262;12.210;2023-05-10T21:51:54;94916.88;;;15.61;100.00
74868;BME280;63419;42.262;12.210;2023-05-10T21:54:21;94900.94;;;15.36;100.00
74868;BME280;63419;42.262;12.210;2023-05-10T21:56:49;94869.09;;;15.63;100.00
74868;BME280;63419;42.262;12.210;2023-05-10T21:59:16;94874.09;;;15.22;100.00
74868;BME280;63419;42.262;12.210;2023-05-10T22:01:43;94847.84;;;15.11;100.00
74868;BME280;63419;42.262;12.210;2023-05-10T22:04:11;94799.28;;;15.53;100.00
74868;BME280;63419;42.262;12.210;2023-05-10T22:06:38;94803.28;;;15.55;100.00
74868;BME280;63419;42.262;12.210;2023-05-10T22:09:05;94834.34;;;14.87;100.00
74868;BME280;63419;42.262;12.210;2023-05-10T22:11:32;94764.81;;;16.06;100.00
74868;BME280;63419;42.262;12.210;2023-05-10T22:13:59;94853.06;;;14.82;100.00
74868;BME280;63419;42.262;12.210;2023-05-10T22:16:27;94835.31;;;14.86;100.00
74868;BME280;63419;42.262;12.210;2023-05-10T22:18:54;94825.34;;;14.90;100.00
74868;BME280;63419;42.262;12.210;2023-05-10T22:21:22;94810.09;;;15.08;100.00
74868;BME280;63419;42.262;12.210;2023-05-10T22:23:49;94813.28;;;15.10;100.00
74868;BME280;63419;42.262;12.210;2023-05-10T22:26:16;94817.44;;;14.70;100.00
74868;BME280;63419;42.262;12.210;2023-05-10T22:28:43;94782.06;;;15.38;100.00
74868;BME280;63419;42.262;12.210;2023-05-10T22:31:11;94776.81;;;15.80;100.00
74868;BME280;63419;42.262;12.210;2023-05-10T22:33:38;94853.28;;;15.16;100.00
74868;BME280;63419;42.262;12.210;2023-05-10T22:36:05;94880.44;;;14.20;100.00
74868;BME280;63419;42.262;12.210;2023-05-10T22:38:33;94804.81;;;14.95;100.00
74868;BME280;63419;42.262;12.210;2023-05-10T22:41:00;94791.03;;;15.36;100.00
74868;BME280;63419;42.262;12.210;2023-05-10T22:43:27;94777.19;;;15.77;100.00
74868;BME280;63419;42.262;12.210;2023-05-10T22:45:54;94800.03;;;16.02;100.00
74868;BME280;63419;42.262;12.210;2023-05-10T22:48:21;94840.03;;;15.87;100.00
74868;BME280;63419;42.262;12.210;2023-05-10T22:50:48;94836.91;;;16.32;100.00
74868;BME280;63419;42.262;12.210;2023-05-10T22:53:15;94860.84;;;16.01;100.00
74868;BME280;63419;42.262;12.210;2023-05-10T22:55:42;94849.50;;;16.15;100.00
74868;BME280;63419;42.262;12.210;2023-05-10T22:58:09;94851.50;;;16.26;100.00
74868;BME280;63419;42.262;12.210;2023-05-10T23:00:37;94880.66;;;16.02;100.00
74868;BME280;63419;42.262;12.210;2023-05-10T23:03:04;94906.72;;;15.32;100.00
74868;BME280;63419;42.262;12.210;2023-05-10T23:05:32;94911.84;;;14.90;100.00
74868;BME280;63419;42.262;12.210;2023-05-10T23:07:59;94895.72;;;14.73;100.00
74868;BME280;63419;42.262;12.210;2023-05-10T23:10:27;94838.16;;;15.33;100.00
74868;BME280;63419;42.262;12.210;2023-05-10T23:12:54;94820.31;;;15.65;100.00
74868;BME280;63419;42.262;12.210;2023-05-10T23:15:21;94839.91;;;15.60;100.00
74868;BME280;63419;42.262;12.210;2023-05-10T23:17:49;94847.38;;;15.35;100.00
74868;BME280;63419;42.262;12.210;2023-05-10T23:20:16;94835.41;;;15.76;100.00
74868;BME280;63419;42.262;12.210;2023-05-10T23:22:43;94915.47;;;14.53;100.00
74868;BME280;63419;42.262;12.210;2023-05-10T23:25:10;94933.50;;;13.51;100.00
74868;BME280;63419;42.262;12.210;2023-05-10T23:27:37;94887.50;;;13.39;100.00
74868;BME280;63419;42.262;12.210;2023-05-10T23:30:05;94810.31;;;13.85;100.00
74868;BME280;63419;42.262;12.210;2023-05-10T23:32:33;94809.88;;;13.45;100.00
74868;BME280;63419;42.262;12.210;2023-05-10T23:35:00;94765.41;;;13.63;100.00
74868;BME280;63419;42.262;12.210;2023-05-10T23:37:27;94745.88;;;13.82;100.00
74868;BME280;63419;42.262;12.210;2023-05-10T23:39:54;94725.06;;;13.76;100.00
74868;BME280;63419;42.262;12.210;2023-05-10T23:42:21;94675.00;;;14.25;100.00
74868;BME280;63419;42.262;12.210;2023-05-10T23:44:50;94693.59;;;14.00;100.00
74868;BME280;63419;42.262;12.210;2023-05-10T23:47:18;94685.94;;;14.20;100.00
74868;BME280;63419;42.262;12.210;2023-05-10T23:49:45;94687.75;;;14.20;100.00
74868;BME280;63419;42.262;12.210;2023-05-10T23:52:12;94674.34;;;14.44;100.00
74868;BME280;63419;42.262;12.210;2023-05-10T23:54:39;94683.88;;;14.37;100.00
74868;BME280;63419;42.262;12.210;2023-05-10T23:57:09;94672.66;;;14.30;100.00
74868;BME280;63419;42.262;12.210;2023-05-10T23:59:36;94691.50;;;13.89;100.00
